Time;durP1;ratioP1;P1;durP2;ratioP2;P2;SDS_P1;SDS_P2;PMS_P1;PMS_P2;Temp;Humidity;BMP_temperature;BMP_pressure;BME280_temperature;BME280_humidity;BME280_pressure;Samples;Min_cycle;Max_cycle;Signal;HPM_P1;HPM_P2
2022/03/20 00:00:34;;;;;;;3.57;2.50;;;5.30;99.90;;;;;;5023624;28;20244;-84
2022/03/20 00:03:05;;;;;;;2.40;2.20;;;5.40;99.90;;;;;;5022393;28;20210;-84
2022/03/20 00:05:31;;;;;;;4.27;1.50;;;5.30;99.90;;;;;;5023003;28;20632;-84
2022/03/20 00:07:56;;;;;;;1.67;1.53;;;5.30;99.90;;;;;;5023737;28;20205;-84
2022/03/20 00:10:22;;;;;;;1.40;1.30;;;5.30;99.90;;;;;;5024449;28;20175;-84
2022/03/20 00:12:47;;;;;;;1.17;1.07;;;5.20;99.90;;;;;;5024613;28;20223;-83
2022/03/20 00:15:13;;;;;;;4.57;2.43;;;5.20;99.90;;;;;;5023612;28;20189;-83
2022/03/20 00:17:38;;;;;;;1.03;0.83;;;5.20;99.90;;;;;;5026529;28;20204;-83
2022/03/20 00:20:05;;;;;;;1.20;1.13;;;5.10;99.90;;;;;;5022782;28;20721;-83
2022/03/20 00:22:31;;;;;;;0.90;0.90;;;5.10;99.90;;;;;;5023931;28;20210;-83
2022/03/20 00:24:57;;;;;;;1.60;1.50;;;5.10;99.90;;;;;;5024058;28;20178;-83
2022/03/20 00:27:23;;;;;;;2.00;1.87;;;5.10;99.90;;;;;;5022387;28;20186;-84
2022/03/20 00:29:50;;;;;;;1.30;1.20;;;5.10;99.90;;;;;;5024673;28;20208;-84
2022/03/20 00:32:16;;;;;;;0.73;0.73;;;5.10;99.90;;;;;;5022943;28;20202;-84
2022/03/20 00:34:42;;;;;;;3.07;0.77;;;5.10;99.90;;;;;;5021445;28;20263;-84
2022/03/20 00:37:08;;;;;;;2.00;1.43;;;5.10;99.90;;;;;;5022434;28;20178;-84
2022/03/20 00:39:35;;;;;;;3.00;2.57;;;5.00;99.90;;;;;;5024574;28;20552;-84
2022/03/20 00:42:02;;;;;;;1.80;1.63;;;5.00;99.90;;;;;;5023776;28;20182;-84
2022/03/20 00:44:27;;;;;;;1.67;1.47;;;5.00;99.90;;;;;;5022612;28;20199;-83
2022/03/20 00:46:53;;;;;;;8.37;1.47;;;5.00;99.90;;;;;;5024310;28;21047;-84
2022/03/20 00:49:19;;;;;;;1.93;1.43;;;5.00;99.90;;;;;;5024640;28;20803;-84
2022/03/20 00:51:45;;;;;;;0.97;0.93;;;5.00;99.90;;;;;;5023833;28;20379;-84
2022/03/20 00:54:11;;;;;;;1.43;1.13;;;5.00;99.90;;;;;;5023013;28;20212;-84
2022/03/20 00:56:38;;;;;;;3.17;1.87;;;5.00;99.90;;;;;;5023138;28;20190;-84
2022/03/20 00:59:03;;;;;;;1.23;1.13;;;5.00;99.90;;;;;;5023452;28;20251;-83
2022/03/20 01:01:30;;;;;;;2.33;1.30;;;5.00;99.90;;;;;;5024767;28;20942;-84
2022/03/20 01:03:56;;;;;;;0.83;0.83;;;4.90;99.90;;;;;;5022970;28;20259;-84
2022/03/20 01:06:24;;;;;;;0.60;0.60;;;5.00;99.90;;;;;;5022517;28;22229;-84
2022/03/20 01:08:50;;;;;;;0.60;0.60;;;5.00;99.90;;;;;;5023464;28;20239;-84
2022/03/20 01:11:17;;;;;;;2.27;2.07;;;5.00;99.90;;;;;;5022966;28;20205;-84
2022/03/20 01:13:43;;;;;;;0.83;0.83;;;5.00;99.90;;;;;;5023319;28;20269;-83
2022/03/20 01:16:09;;;;;;;1.37;1.27;;;5.00;99.90;;;;;;5021694;28;20188;-84
2022/03/20 01:18:35;;;;;;;1.57;1.47;;;5.00;99.90;;;;;;5025203;28;20241;-84
2022/03/20 01:21:01;;;;;;;1.23;1.13;;;4.90;99.90;;;;;;5025629;28;20527;-84
2022/03/20 01:23:27;;;;;;;1.30;1.30;;;4.90;99.90;;;;;;5023266;28;20206;-84
2022/03/20 01:25:53;;;;;;;2.10;1.60;;;4.90;99.90;;;;;;5023342;28;20234;-84
2022/03/20 01:28:20;;;;;;;1.87;1.47;;;4.90;99.90;;;;;;5022228;28;20216;-84
2022/03/20 01:30:47;;;;;;;0.77;0.77;;;4.90;99.90;;;;;;5022822;28;20209;-84
2022/03/20 01:33:16;;;;;;;1.93;1.80;;;4.90;99.90;;;;;;5022084;28;20203;-82
2022/03/20 01:35:42;;;;;;;1.90;1.63;;;4.80;99.90;;;;;;5023814;28;20675;-84
2022/03/20 01:38:08;;;;;;;2.03;1.43;;;4.70;99.90;;;;;;5021049;28;20221;-84
2022/03/20 01:40:34;;;;;;;1.83;1.53;;;4.70;99.90;;;;;;5022092;28;20312;-84
2022/03/20 01:43:00;;;;;;;2.00;1.30;;;4.70;99.90;;;;;;5023801;28;20238;-84
2022/03/20 01:45:26;;;;;;;1.17;1.07;;;4.70;99.90;;;;;;5023892;28;20189;-83
2022/03/20 01:47:52;;;;;;;3.13;2.10;;;4.70;99.90;;;;;;5024373;28;20189;-84
2022/03/20 01:50:24;;;;;;;1.30;1.30;;;4.70;99.90;;;;;;5024863;28;20183;-84
2022/03/20 01:52:52;;;;;;;4.57;1.40;;;4.80;99.90;;;;;;5024520;28;20281;-84
2022/03/20 01:55:20;;;;;;;2.33;1.47;;;4.80;99.90;;;;;;5026528;28;20275;-84
2022/03/20 01:57:46;;;;;;;2.23;1.57;;;4.80;99.90;;;;;;5026575;28;20280;-84
2022/03/20 02:00:14;;;;;;;2.40;2.23;;;4.70;99.90;;;;;;5027484;28;20181;-84
2022/03/20 02:02:40;;;;;;;2.87;2.23;;;4.70;99.90;;;;;;5025989;28;20550;-84
2022/03/20 02:05:10;;;;;;;1.93;1.33;;;4.70;99.90;;;;;;5035632;28;20200;-84
2022/03/20 02:07:40;;;;;;;1.17;1.07;;;4.70;99.90;;;;;;5025060;28;20183;-83
2022/03/20 02:10:08;;;;;;;1.43;1.33;;;4.80;99.90;;;;;;5026015;28;20636;-84
2022/03/20 02:12:36;;;;;;;1.27;1.13;;;4.70;99.90;;;;;;5025843;28;20213;-84
2022/03/20 02:15:03;;;;;;;1.43;1.20;;;4.70;99.90;;;;;;5026222;28;20193;-83
2022/03/20 02:17:30;;;;;;;2.97;1.90;;;4.70;99.90;;;;;;5028527;28;20174;-84
2022/03/20 02:20:03;;;;;;;4.17;2.10;;;4.80;99.90;;;;;;5026453;28;20184;-84
2022/03/20 02:22:29;;;;;;;4.07;2.67;;;4.80;99.90;;;;;;5026232;28;20216;-84
2022/03/20 02:24:54;;;;;;;1.60;1.27;;;4.80;99.90;;;;;;5025021;28;20544;-84
2022/03/20 02:27:27;;;;;;;2.53;1.90;;;4.80;99.90;;;;;;5024943;28;20199;-84
2022/03/20 02:29:57;;;;;;;2.20;0.87;;;4.80;99.90;;;;;;5025367;28;20753;-84
2022/03/20 02:32:32;;;;;;;1.00;1.00;;;4.80;99.90;;;;;;5027376;28;20226;-83
2022/03/20 02:35:04;;;;;;;2.37;1.90;;;4.80;99.90;;;;;;5026254;28;20199;-84
2022/03/20 02:37:31;;;;;;;2.00;1.57;;;4.80;99.90;;;;;;5026893;28;20213;-84
2022/03/20 02:40:03;;;;;;;3.53;1.77;;;4.80;99.90;;;;;;5025840;28;20182;-83
2022/03/20 02:42:29;;;;;;;1.77;1.43;;;4.80;99.90;;;;;;5025480;28;20252;-83
2022/03/20 02:45:05;;;;;;;3.23;1.97;;;4.80;99.90;;;;;;5026704;28;20719;-84
2022/03/20 02:47:39;;;;;;;3.50;3.20;;;4.70;99.90;;;;;;5027354;28;20187;-84
2022/03/20 02:50:06;;;;;;;1.60;1.50;;;4.70;99.90;;;;;;5028297;28;20285;-84
2022/03/20 02:52:52;;;;;;;1.57;1.53;;;4.70;99.90;;;;;;5025375;28;20275;-83
2022/03/20 02:55:24;;;;;;;1.33;1.23;;;4.70;99.90;;;;;;5026434;28;20185;-84
2022/03/20 02:57:51;;;;;;;1.00;1.00;;;4.70;99.90;;;;;;5024221;28;20184;-84
2022/03/20 03:00:21;;;;;;;3.57;2.33;;;4.70;99.90;;;;;;5025195;28;20190;-83
2022/03/20 03:02:47;;;;;;;4.70;2.43;;;4.70;99.90;;;;;;5025640;28;20192;-83
2022/03/20 03:05:15;;;;;;;2.07;1.90;;;4.80;99.90;;;;;;5023375;28;20464;-83
2022/03/20 03:13:40;;;;;;;1.93;1.80;;;4.60;99.90;;;;;;5024123;28;20210;-83
2022/03/20 03:16:11;;;;;;;1.17;0.97;;;4.80;99.90;;;;;;5032275;28;20214;-83
2022/03/20 03:18:39;;;;;;;2.07;1.87;;;4.80;99.90;;;;;;5037679;28;21269;-83
2022/03/20 03:21:09;;;;;;;1.80;1.70;;;4.70;99.90;;;;;;5038130;28;20199;-83
2022/03/20 03:23:36;;;;;;;8.00;1.93;;;4.70;99.90;;;;;;5033396;28;21441;-84
2022/03/20 03:26:04;;;;;;;2.17;0.93;;;4.70;99.90;;;;;;5026944;28;20184;-83
2022/03/20 03:28:34;;;;;;;1.33;1.23;;;4.80;99.90;;;;;;5027231;28;20313;-83
2022/03/20 03:31:07;;;;;;;4.03;2.03;;;4.70;99.90;;;;;;5028250;28;20521;-83
2022/03/20 03:33:33;;;;;;;1.53;1.43;;;4.70;99.90;;;;;;5027833;28;21131;-83
2022/03/20 03:36:01;;;;;;;0.93;0.93;;;4.80;99.90;;;;;;5027484;28;20209;-83
2022/03/20 03:38:34;;;;;;;4.80;3.60;;;4.80;99.90;;;;;;5027407;28;20221;-83
2022/03/20 03:40:59;;;;;;;0.57;0.57;;;4.80;99.90;;;;;;5026439;28;20203;-83
2022/03/20 03:43:25;;;;;;;3.53;2.87;;;4.80;99.90;;;;;;5025727;28;20212;-83
2022/03/20 03:45:53;;;;;;;3.23;1.77;;;4.80;99.90;;;;;;5026751;28;20189;-83
2022/03/20 03:48:18;;;;;;;3.73;2.27;;;4.80;99.90;;;;;;5027320;28;20209;-82
2022/03/20 03:50:47;;;;;;;4.50;3.20;;;4.90;99.90;;;;;;5029233;28;20290;-83
2022/03/20 03:53:13;;;;;;;3.73;2.17;;;4.80;99.90;;;;;;5027520;28;20279;-83
2022/03/20 03:55:41;;;;;;;1.20;1.20;;;4.80;99.90;;;;;;5026967;28;20185;-84
2022/03/20 03:58:07;;;;;;;3.73;2.83;;;4.70;99.90;;;;;;5024058;28;20202;-83
2022/03/20 04:00:34;;;;;;;1.10;1.00;;;4.80;99.90;;;;;;5024172;28;20189;-83
2022/03/20 04:03:00;;;;;;;2.73;1.47;;;4.80;99.90;;;;;;5025379;28;20257;-83
2022/03/20 04:05:27;;;;;;;2.80;2.03;;;4.80;99.90;;;;;;5025633;28;20204;-83
2022/03/20 04:07:53;;;;;;;2.93;2.13;;;4.80;99.90;;;;;;5026763;28;20178;-83
2022/03/20 04:10:19;;;;;;;2.30;1.33;;;4.80;99.90;;;;;;5026296;28;20189;-83
2022/03/20 04:12:45;;;;;;;2.30;1.20;;;4.80;99.90;;;;;;5024153;28;20771;-83
2022/03/20 04:15:12;;;;;;;2.07;1.70;;;4.80;99.90;;;;;;5027040;28;20866;-83
2022/03/20 04:17:38;;;;;;;3.53;1.40;;;4.80;99.90;;;;;;5025081;28;20680;-83
2022/03/20 04:20:06;;;;;;;2.97;2.10;;;4.80;99.90;;;;;;5025944;28;20196;-83
2022/03/20 04:22:34;;;;;;;3.00;1.67;;;4.80;99.90;;;;;;5026421;28;20255;-83
2022/03/20 04:25:00;;;;;;;3.33;2.93;;;4.80;99.90;;;;;;5025718;28;20191;-83
2022/03/20 04:27:28;;;;;;;1.47;1.33;;;4.80;99.90;;;;;;5025032;28;20193;-83
2022/03/20 04:29:54;;;;;;;5.27;2.93;;;4.80;99.90;;;;;;5026513;28;20202;-83
2022/03/20 04:32:20;;;;;;;1.27;1.17;;;4.80;99.90;;;;;;5025946;28;20246;-83
2022/03/20 04:34:46;;;;;;;2.10;1.80;;;4.80;99.90;;;;;;5022844;28;20216;-83
2022/03/20 04:37:13;;;;;;;4.87;1.20;;;4.80;99.90;;;;;;5026519;28;20740;-83
2022/03/20 04:39:39;;;;;;;3.63;1.80;;;4.80;99.90;;;;;;5024054;28;20216;-83
2022/03/20 04:42:06;;;;;;;2.13;2.00;;;4.80;99.90;;;;;;5023690;28;20192;-83
2022/03/20 04:44:32;;;;;;;2.53;2.33;;;4.70;99.90;;;;;;5022780;28;20254;-83
2022/03/20 04:46:58;;;;;;;3.07;2.70;;;4.80;99.90;;;;;;5013020;28;20189;-83
2022/03/20 05:00:23;;;;;;;3.10;2.77;;;4.90;99.90;;;;;;5025003;28;20185;-83
2022/03/20 05:02:49;;;;;;;3.83;3.50;;;4.90;99.90;;;;;;5023728;28;20216;-83
2022/03/20 05:05:18;;;;;;;6.67;2.93;;;5.00;99.90;;;;;;5023728;28;20198;-83
2022/03/20 05:07:43;;;;;;;2.50;2.30;;;4.90;99.90;;;;;;5021143;28;20214;-83
2022/03/20 05:15:42;;;;;;;3.27;2.97;;;5.00;99.90;;;;;;5023988;28;20282;-83
2022/03/20 05:18:08;;;;;;;3.17;2.50;;;5.00;99.90;;;;;;5024370;28;20189;-83
2022/03/20 05:20:34;;;;;;;1.83;1.53;;;5.00;99.90;;;;;;5022826;28;20186;-83
2022/03/20 05:23:00;;;;;;;3.80;2.17;;;5.00;99.90;;;;;;5021183;28;20209;-83
2022/03/20 05:25:28;;;;;;;2.90;2.27;;;5.00;99.90;;;;;;5022381;28;20193;-82
2022/03/20 05:27:57;;;;;;;5.70;1.87;;;5.00;99.90;;;;;;5023874;28;20192;-83
2022/03/20 05:30:24;;;;;;;1.60;1.27;;;5.00;99.90;;;;;;5023527;28;20182;-83
2022/03/20 05:32:50;;;;;;;2.97;1.90;;;5.00;99.90;;;;;;5018360;28;20216;-83
2022/03/20 05:35:16;;;;;;;3.57;2.10;;;5.00;99.90;;;;;;5022873;28;20185;-83
2022/03/20 05:37:43;;;;;;;0.93;0.93;;;5.00;99.90;;;;;;5015573;28;20183;-83
2022/03/20 05:40:09;;;;;;;2.40;2.13;;;5.10;99.90;;;;;;5019246;28;20250;-83
2022/03/20 05:42:38;;;;;;;2.57;2.03;;;5.10;99.90;;;;;;5027344;28;20208;-83
2022/03/20 05:45:05;;;;;;;3.87;2.70;;;5.10;99.90;;;;;;5020483;28;20189;-83
2022/03/20 05:47:31;;;;;;;1.43;1.33;;;5.10;99.90;;;;;;5021569;28;20196;-83
2022/03/20 05:50:00;;;;;;;3.17;2.07;;;5.10;99.90;;;;;;5022863;28;21397;-83
2022/03/20 05:52:27;;;;;;;3.63;1.97;;;5.10;99.90;;;;;;5023364;28;20261;-83
2022/03/20 05:54:52;;;;;;;3.97;2.40;;;5.10;99.90;;;;;;5022046;28;20649;-83
2022/03/20 06:00:04;;;;;;;7.33;2.47;;;5.10;99.90;;;;;;5025587;28;20215;-83
2022/03/20 06:02:29;;;;;;;2.07;1.57;;;5.10;99.90;;;;;;5021514;28;20224;-83
2022/03/20 06:04:55;;;;;;;1.67;1.37;;;5.10;99.90;;;;;;5021824;28;20188;-83
2022/03/20 06:07:20;;;;;;;1.60;1.50;;;5.20;99.90;;;;;;5021141;28;20199;-83
2022/03/20 06:09:46;;;;;;;5.57;1.73;;;5.20;99.90;;;;;;5021835;28;20717;-83
2022/03/20 06:12:11;;;;;;;1.53;1.43;;;5.10;99.90;;;;;;5029296;28;20189;-83
2022/03/20 06:14:37;;;;;;;2.47;1.63;;;5.20;99.90;;;;;;5020875;28;20185;-82
2022/03/20 06:17:05;;;;;;;4.33;1.53;;;5.20;99.90;;;;;;5031307;28;20188;-83
2022/03/20 06:19:31;;;;;;;1.77;1.63;;;5.20;99.90;;;;;;5022169;28;20193;-83
2022/03/20 06:21:57;;;;;;;1.80;1.70;;;5.30;99.90;;;;;;5022292;28;20194;-82
2022/03/20 06:24:22;;;;;;;2.07;1.97;;;5.30;99.90;;;;;;5021209;28;20672;-83
2022/03/20 06:26:48;;;;;;;7.37;2.23;;;5.20;99.90;;;;;;5021738;28;20335;-83
2022/03/20 06:29:14;;;;;;;1.67;1.57;;;5.30;99.90;;;;;;5021523;28;20694;-84
2022/03/20 06:31:39;;;;;;;1.30;1.27;;;5.40;99.90;;;;;;5025077;28;20324;-83
2022/03/20 06:34:05;;;;;;;1.93;1.40;;;5.40;99.90;;;;;;5022728;28;20222;-83
2022/03/20 06:36:31;;;;;;;2.13;1.67;;;5.50;99.90;;;;;;5020951;28;20201;-83
2022/03/20 06:38:57;;;;;;;2.90;2.10;;;5.50;99.90;;;;;;5032340;28;20188;-82
2022/03/20 06:41:23;;;;;;;2.43;2.23;;;5.60;99.90;;;;;;5027024;28;20192;-83
2022/03/20 06:43:49;;;;;;;2.53;2.33;;;5.70;99.90;;;;;;5027621;28;20236;-83
2022/03/20 06:46:15;;;;;;;7.00;2.00;;;5.70;99.90;;;;;;5026306;28;20543;-83
2022/03/20 06:48:40;;;;;;;3.23;1.87;;;5.80;99.90;;;;;;5026973;28;20228;-83
2022/03/20 06:51:06;;;;;;;3.97;2.53;;;5.80;99.90;;;;;;5026046;28;20185;-83
2022/03/20 06:53:32;;;;;;;4.27;1.87;;;5.90;99.90;;;;;;5025380;28;20209;-83
2022/03/20 06:55:58;;;;;;;1.63;1.53;;;5.90;99.90;;;;;;5024126;28;20178;-83
2022/03/20 06:58:24;;;;;;;1.50;1.47;;;6.00;99.90;;;;;;5025425;28;20190;-83
2022/03/20 07:00:50;;;;;;;3.17;1.77;;;6.10;99.90;;;;;;5026306;28;20183;-83
2022/03/20 07:03:16;;;;;;;3.97;2.20;;;6.20;99.90;;;;;;5023416;28;20248;-83
2022/03/20 07:05:42;;;;;;;4.57;2.00;;;6.30;99.90;;;;;;5024089;28;20227;-83
2022/03/20 07:08:08;;;;;;;4.37;2.20;;;6.30;99.90;;;;;;5024436;28;20229;-83
2022/03/20 07:10:35;;;;;;;5.67;2.13;;;6.50;99.90;;;;;;5026489;28;20190;-83
2022/03/20 07:15:48;;;;;;;4.93;1.67;;;6.30;99.90;;;;;;5025084;28;20185;-83
2022/03/20 07:18:17;;;;;;;8.53;2.93;;;6.40;99.90;;;;;;5024481;28;20289;-83
2022/03/20 07:20:45;;;;;;;1.80;1.70;;;6.40;99.90;;;;;;5023768;28;20189;-83
2022/03/20 07:23:12;;;;;;;2.57;1.87;;;6.30;99.90;;;;;;5026248;28;20750;-83
2022/03/20 07:31:10;;;;;;;6.23;2.57;;;6.20;99.90;;;;;;5025380;28;20285;-83
2022/03/20 07:33:36;;;;;;;5.10;1.53;;;6.30;99.90;;;;;;5020855;28;20329;-83
2022/03/20 07:36:03;;;;;;;1.50;1.50;;;6.40;99.90;;;;;;5029138;28;20663;-85
2022/03/20 07:38:29;;;;;;;1.13;1.10;;;6.40;99.90;;;;;;5026451;28;20201;-82
2022/03/20 07:40:54;;;;;;;3.43;2.57;;;6.30;99.90;;;;;;5025536;28;20186;-83
2022/03/20 07:43:20;;;;;;;1.90;1.80;;;6.40;99.90;;;;;;5029581;28;20218;-83
2022/03/20 07:45:46;;;;;;;3.73;2.07;;;6.40;99.90;;;;;;5025346;28;20178;-82
2022/03/20 07:48:14;;;;;;;2.27;2.07;;;6.50;99.90;;;;;;5024268;28;20279;-82
2022/03/20 07:50:42;;;;;;;2.00;1.90;;;6.50;99.90;;;;;;5023029;28;20192;-82
2022/03/20 07:53:08;;;;;;;2.17;2.03;;;6.80;99.90;;;;;;5024087;28;20209;-81
2022/03/20 07:55:34;;;;;;;2.07;1.97;;;6.90;99.90;;;;;;5023840;28;20182;-81
2022/03/20 07:58:00;;;;;;;4.97;2.63;;;7.10;99.90;;;;;;5024562;28;20236;-81
2022/03/20 08:00:26;;;;;;;3.23;2.93;;;7.10;99.90;;;;;;5022315;28;20262;-82
2022/03/20 08:02:52;;;;;;;2.53;2.33;;;7.10;99.90;;;;;;5023789;28;20303;-81
2022/03/20 08:05:18;;;;;;;2.90;2.60;;;7.00;99.90;;;;;;5022330;28;20336;-81
2022/03/20 08:07:44;;;;;;;2.93;2.10;;;7.30;99.90;;;;;;5022605;28;20184;-81
2022/03/20 08:10:11;;;;;;;3.27;1.83;;;7.60;99.90;;;;;;5023799;28;20210;-81
2022/03/20 08:12:38;;;;;;;2.37;2.13;;;7.50;99.90;;;;;;5019601;28;20210;-80
2022/03/20 08:15:05;;;;;;;2.83;2.27;;;8.00;99.90;;;;;;5023247;28;20594;-81
2022/03/20 08:17:31;;;;;;;2.53;2.33;;;8.30;99.90;;;;;;5022148;28;20191;-81
2022/03/20 08:19:57;;;;;;;2.53;2.37;;;8.40;99.90;;;;;;5022799;28;20661;-81
2022/03/20 08:22:25;;;;;;;2.77;2.57;;;8.60;99.90;;;;;;5023490;28;20356;-81
2022/03/20 08:24:51;;;;;;;3.97;2.13;;;8.60;99.90;;;;;;5020662;28;20884;-81
2022/03/20 08:27:19;;;;;;;4.13;2.17;;;8.30;99.90;;;;;;5021800;28;20342;-81
2022/03/20 08:29:45;;;;;;;5.10;3.00;;;8.70;99.90;;;;;;5020833;28;20199;-82
2022/03/20 08:32:10;;;;;;;3.37;2.07;;;9.20;99.90;;;;;;5022498;28;20186;-82
2022/03/20 08:34:36;;;;;;;2.37;2.23;;;9.40;99.90;;;;;;5021054;28;20220;-81
2022/03/20 08:37:01;;;;;;;3.53;2.40;;;9.80;99.90;;;;;;5020713;28;20272;-81
2022/03/20 08:39:27;;;;;;;3.43;1.90;;;9.80;99.90;;;;;;5025498;28;20224;-81
2022/03/20 08:41:53;;;;;;;2.13;2.00;;;9.70;99.90;;;;;;5023301;28;20190;-81
2022/03/20 08:44:18;;;;;;;2.60;2.40;;;9.00;99.90;;;;;;5024981;28;20224;-81
2022/03/20 08:46:44;;;;;;;1.97;1.60;;;8.80;99.90;;;;;;5021168;28;21091;-81
2022/03/20 08:49:10;;;;;;;3.07;1.60;;;9.00;99.90;;;;;;5025636;28;20232;-81
2022/03/20 08:51:41;;;;;;;3.67;3.37;;;9.10;99.90;;;;;;5021922;28;20671;-81
2022/03/20 08:54:07;;;;;;;3.93;2.83;;;9.10;99.90;;;;;;5024068;28;20349;-81
2022/03/20 08:56:33;;;;;;;1.90;1.80;;;9.20;99.90;;;;;;5021195;28;20189;-81
2022/03/20 08:58:59;;;;;;;2.90;2.60;;;9.50;99.90;;;;;;5022892;28;20257;-81
2022/03/20 09:01:24;;;;;;;3.80;2.50;;;9.80;99.90;;;;;;5025306;28;20224;-81
2022/03/20 09:03:50;;;;;;;3.10;2.13;;;9.60;99.90;;;;;;5022457;28;20251;-81
2022/03/20 09:06:17;;;;;;;2.37;2.17;;;10.00;99.90;;;;;;5021415;28;20229;-81
2022/03/20 09:08:43;;;;;;;3.77;2.10;;;9.60;99.90;;;;;;5018972;28;20225;-87
2022/03/20 09:11:09;;;;;;;5.53;3.33;;;9.80;99.90;;;;;;5018253;28;20190;-82
2022/03/20 09:13:35;;;;;;;2.43;2.23;;;10.20;99.90;;;;;;5023579;28;20205;-81
2022/03/20 09:19:04;;;;;;;4.43;2.17;;;10.10;99.90;;;;;;5018598;28;20686;-81
2022/03/20 09:21:33;;;;;;;5.37;1.73;;;10.60;99.90;;;;;;5022055;28;20200;-81
2022/03/20 09:23:59;;;;;;;5.33;2.33;;;11.00;99.90;;;;;;5027631;28;20198;-81
2022/03/20 09:26:24;;;;;;;0.97;0.97;;;10.70;99.90;;;;;;5035311;28;20698;-81
2022/03/20 09:28:50;;;;;;;4.07;1.70;;;10.70;99.90;;;;;;5025487;28;20237;-80
2022/03/20 09:31:16;;;;;;;3.40;1.83;;;11.10;99.90;;;;;;5033844;28;20187;-81
2022/03/20 09:33:43;;;;;;;6.53;1.77;;;11.50;99.90;;;;;;5025471;28;20577;-81
2022/03/20 09:36:09;;;;;;;2.77;2.57;;;11.70;99.90;;;;;;5023324;28;20182;-81
2022/03/20 09:38:35;;;;;;;5.30;1.43;;;11.10;99.90;;;;;;5023613;28;20212;-81
2022/03/20 09:41:07;;;;;;;1.63;1.53;;;11.50;99.90;;;;;;5025800;28;20652;-81
2022/03/20 09:43:34;;;;;;;6.47;3.30;;;11.70;99.90;;;;;;5024721;28;20308;-80
2022/03/20 09:46:01;;;;;;;5.30;3.23;;;12.20;99.90;;;;;;5023566;28;20674;-80
2022/03/20 09:48:29;;;;;;;2.03;1.83;;;12.60;99.90;;;;;;5024094;28;20359;-81
2022/03/20 09:50:54;;;;;;;3.60;1.13;;;12.90;99.90;;;;;;5022775;28;20586;-80
2022/03/20 09:53:21;;;;;;;3.53;1.47;;;13.40;99.90;;;;;;5023287;28;20354;-81
2022/03/20 09:55:46;;;;;;;3.10;2.80;;;13.50;99.90;;;;;;5024890;28;20178;-81
2022/03/20 09:58:12;;;;;;;4.67;2.87;;;12.80;99.90;;;;;;5019157;28;20546;-81
2022/03/20 10:00:37;;;;;;;4.93;3.27;;;13.20;99.90;;;;;;5020235;28;20193;-80
2022/03/20 10:03:17;;;;;;;2.17;1.23;;;12.70;99.90;;;;;;5016135;28;20214;-82
2022/03/20 10:05:43;;;;;;;4.87;3.17;;;13.20;99.90;;;;;;5041717;28;20202;-81
2022/03/20 10:08:19;;;;;;;3.30;2.07;;;13.30;99.90;;;;;;5024290;28;21036;-82
2022/03/20 10:10:47;;;;;;;2.03;1.37;;;12.90;99.90;;;;;;5020773;28;20569;-83
2022/03/20 10:13:14;;;;;;;3.80;2.93;;;12.60;99.90;;;;;;5018819;28;20213;-84
2022/03/20 10:15:42;;;;;;;2.93;1.83;;;12.70;99.90;;;;;;5024218;28;20217;-84
2022/03/20 10:18:14;;;;;;;4.33;2.37;;;12.80;99.90;;;;;;5024248;28;20190;-84
2022/03/20 10:20:58;;;;;;;1.80;1.63;;;12.70;99.90;;;;;;5024913;28;20265;-85
2022/03/20 10:23:45;;;;;;;2.30;1.50;;;12.70;99.90;;;;;;5025054;28;20293;-84
2022/03/20 10:26:16;;;;;;;3.57;1.97;;;13.20;99.90;;;;;;5025479;28;20191;-84
2022/03/20 10:28:43;;;;;;;7.03;2.90;;;13.40;99.90;;;;;;5025292;28;20206;-84
2022/03/20 10:31:20;;;;;;;5.77;2.17;;;13.10;99.90;;;;;;5038134;28;20188;-83
2022/03/20 10:34:04;;;;;;;7.37;4.97;;;12.80;99.90;;;;;;5034645;28;20207;-84
2022/03/20 10:36:31;;;;;;;1.80;1.33;;;13.40;99.90;;;;;;5044063;28;20259;-84
2022/03/20 10:38:56;;;;;;;3.30;3.00;;;14.00;99.90;;;;;;5031628;28;20202;-85
2022/03/20 10:41:26;;;;;;;9.57;3.50;;;14.30;99.90;;;;;;5028208;28;20227;-85
2022/03/20 10:43:53;;;;;;;2.83;2.10;;;14.00;99.90;;;;;;5023297;28;20743;-85
2022/03/20 10:46:30;;;;;;;2.73;1.97;;;14.10;99.90;;;;;;5023055;28;20219;-85
2022/03/20 10:48:59;;;;;;;2.37;2.27;;;14.40;99.90;;;;;;5025147;28;20256;-85
2022/03/20 10:51:25;;;;;;;5.77;4.00;;;14.60;99.90;;;;;;5024135;28;20205;-85
2022/03/20 10:53:57;;;;;;;3.07;2.57;;;14.90;99.90;;;;;;5023269;28;20274;-85
2022/03/20 10:56:23;;;;;;;4.73;2.67;;;15.10;99.90;;;;;;5023575;28;20209;-85
2022/03/20 10:58:49;;;;;;;4.87;3.47;;;15.30;99.90;;;;;;5024427;28;20180;-85
2022/03/20 11:01:14;;;;;;;4.73;2.00;;;15.10;99.90;;;;;;5024541;28;20188;-83
2022/03/20 11:03:41;;;;;;;3.73;2.70;;;15.00;99.90;;;;;;5024254;28;20213;-83
2022/03/20 11:06:07;;;;;;;4.47;2.50;;;14.80;99.90;;;;;;5025364;28;20207;-83
2022/03/20 11:08:33;;;;;;;6.30;2.23;;;15.00;99.90;;;;;;5027897;28;20228;-83
2022/03/20 11:11:00;;;;;;;4.30;3.03;;;14.90;99.90;;;;;;5029076;28;20182;-83
2022/03/20 11:13:27;;;;;;;4.33;1.60;;;14.90;99.90;;;;;;5026539;28;20236;-83
2022/03/20 11:15:57;;;;;;;2.73;2.13;;;14.70;99.90;;;;;;5022933;28;20185;-82
2022/03/20 11:18:25;;;;;;;3.87;2.47;;;14.60;99.90;;;;;;5024527;28;20181;-83
2022/03/20 11:20:52;;;;;;;4.67;2.70;;;14.70;99.90;;;;;;5028016;28;20679;-84
2022/03/20 11:23:18;;;;;;;4.03;2.37;;;14.70;99.90;;;;;;5026514;28;20245;-84
2022/03/20 11:25:45;;;;;;;2.47;1.57;;;14.90;99.90;;;;;;5023747;28;20236;-83
2022/03/20 11:28:12;;;;;;;3.83;1.97;;;14.70;99.90;;;;;;5020305;28;20197;-83
2022/03/20 11:30:38;;;;;;;2.27;1.60;;;14.60;99.90;;;;;;5022241;28;20658;-83
2022/03/20 11:33:06;;;;;;;3.17;2.17;;;14.60;99.90;;;;;;5024131;28;20211;-83
2022/03/20 11:35:34;;;;;;;4.57;1.50;;;14.60;99.90;;;;;;5023869;28;20199;-83
2022/03/20 11:38:24;;;;;;;3.67;2.40;;;14.60;99.90;;;;;;5025986;28;20199;-82
2022/03/20 11:41:23;;;;;;;5.10;2.07;;;14.50;99.90;;;;;;5026012;28;20193;-83
2022/03/20 11:44:10;;;;;;;3.37;2.13;;;14.60;99.90;;;;;;5014883;28;20263;-83
2022/03/20 11:46:36;;;;;;;4.43;1.77;;;14.70;99.90;;;;;;5020236;28;20200;-83
2022/03/20 11:49:15;;;;;;;5.43;2.23;;;14.70;99.90;;;;;;5022449;28;20207;-83
2022/03/20 11:51:58;;;;;;;3.93;2.20;;;14.90;99.90;;;;;;5025247;28;20178;-83
2022/03/20 11:54:49;;;;;;;3.77;2.30;;;14.90;99.90;;;;;;5020586;28;20209;-83
2022/03/20 11:57:24;;;;;;;2.77;2.10;;;15.00;99.90;;;;;;5023785;28;20263;-83
2022/03/20 11:59:51;;;;;;;6.93;1.67;;;15.00;99.90;;;;;;5020800;28;20797;-83
2022/03/20 12:02:18;;;;;;;3.40;1.83;;;15.20;99.90;;;;;;5022469;28;20572;-83
2022/03/20 12:04:57;;;;;;;2.07;1.97;;;15.60;99.90;;;;;;5023565;28;20197;-83
2022/03/20 12:07:40;;;;;;;8.40;1.30;;;15.70;99.90;;;;;;5023619;28;20247;-83
2022/03/20 12:10:18;;;;;;;2.50;2.00;;;16.20;99.90;;;;;;5020846;28;20728;-82
2022/03/20 12:13:15;;;;;;;2.90;1.97;;;16.10;99.90;;;;;;5017614;28;20208;-83
2022/03/20 12:15:42;;;;;;;2.70;1.57;;;16.20;99.90;;;;;;5021626;28;20182;-83
2022/03/20 12:18:10;;;;;;;6.40;2.63;;;16.20;99.90;;;;;;5021744;28;20176;-83
2022/03/20 12:20:48;;;;;;;10.37;2.10;;;16.00;99.90;;;;;;5023888;28;20250;-83
2022/03/20 12:23:29;;;;;;;1.57;1.47;;;15.90;99.90;;;;;;5020938;28;20194;-83
2022/03/20 12:25:56;;;;;;;4.70;2.30;;;15.80;99.90;;;;;;5024078;28;20188;-83
2022/03/20 12:28:28;;;;;;;3.27;2.43;;;15.60;99.90;;;;;;5023876;28;20252;-83
2022/03/20 12:30:54;;;;;;;3.50;2.83;;;15.60;99.90;;;;;;5024293;28;20185;-82
2022/03/20 12:33:27;;;;;;;5.13;1.97;;;15.60;99.90;;;;;;5022492;28;20282;-83
2022/03/20 12:35:54;;;;;;;2.00;1.80;;;15.80;99.90;;;;;;5021719;28;20187;-83
2022/03/20 12:38:32;;;;;;;4.93;2.70;;;16.20;99.90;;;;;;5023037;28;20185;-83
2022/03/20 12:41:06;;;;;;;2.07;1.87;;;16.20;99.90;;;;;;5024851;28;20193;-83
2022/03/20 12:43:31;;;;;;;3.10;1.77;;;16.10;99.90;;;;;;5023328;28;20214;-82
2022/03/20 12:45:58;;;;;;;2.20;2.07;;;16.10;99.90;;;;;;5023409;28;20235;-83
2022/03/20 12:48:25;;;;;;;1.47;1.13;;;15.70;99.90;;;;;;5021563;28;20253;-83
2022/03/20 12:51:00;;;;;;;2.17;1.90;;;15.80;99.90;;;;;;5021134;28;20194;-88
2022/03/20 12:53:37;;;;;;;3.70;2.37;;;15.90;99.90;;;;;;5020905;28;20347;-82
2022/03/20 12:58:38;;;;;;;2.23;1.87;;;15.90;99.90;;;;;;5025540;28;20491;-81
2022/03/20 13:01:08;;;;;;;2.87;1.23;;;15.80;99.90;;;;;;5021033;28;20190;-81
2022/03/20 13:03:34;;;;;;;5.10;1.93;;;15.50;99.90;;;;;;5022280;28;20742;-81
2022/03/20 13:06:01;;;;;;;2.10;1.60;;;15.80;99.90;;;;;;5016852;28;20291;-82
2022/03/20 13:08:47;;;;;;;1.40;1.30;;;16.00;99.90;;;;;;5021242;28;20219;-81
2022/03/20 13:14:12;;;;;;;2.23;1.97;;;16.30;99.90;;;;;;5021769;28;20307;-82
2022/03/20 13:16:54;;;;;;;1.63;1.20;;;16.10;99.90;;;;;;5015445;28;20211;-81
2022/03/20 13:19:34;;;;;;;1.43;1.30;;;16.20;99.90;;;;;;5030619;28;20190;-81
2022/03/20 13:22:08;;;;;;;2.20;1.43;;;16.30;99.90;;;;;;5021537;28;20219;-81
2022/03/20 13:24:46;;;;;;;1.97;1.83;;;16.10;99.90;;;;;;5020336;28;20193;-82
2022/03/20 13:27:13;;;;;;;2.77;1.90;;;16.20;99.90;;;;;;5013023;28;20648;-82
2022/03/20 13:29:42;;;;;;;2.60;1.90;;;16.30;99.90;;;;;;5015855;28;20231;-81
2022/03/20 13:32:10;;;;;;;2.53;1.93;;;16.10;99.90;;;;;;5016122;28;20249;-82
2022/03/20 13:34:47;;;;;;;4.37;1.60;;;16.10;99.90;;;;;;5017492;28;20227;-83
2022/03/20 13:37:15;;;;;;;2.53;1.70;;;16.20;99.90;;;;;;5016594;28;20177;-82
2022/03/20 13:39:46;;;;;;;2.33;1.33;;;16.20;99.90;;;;;;5018819;28;20275;-81